Time;durP1;ratioP1;P1;durP2;ratioP2;P2;SDS_P1;SDS_P2;PMS_P1;PMS_P2;Temp;Humidity;BMP_temperature;BMP_pressure;BME280_temperature;BME280_humidity;BME280_pressure;Samples;Min_cycle;Max_cycle;Signal;HPM_P1;HPM_P2
2022/11/20 00:00:46;;;;;;;20.48;11.02;;;-4.20;99.90;;;;;;5031488;28;20075;-80
2022/11/20 00:03:12;;;;;;;24.13;11.80;;;-4.20;99.90;;;;;;5032374;28;20048;-80
2022/11/20 00:05:38;;;;;;;23.10;11.55;;;-4.30;99.90;;;;;;5053088;28;20176;-80
2022/11/20 00:08:04;;;;;;;24.73;13.23;;;-4.30;99.90;;;;;;5051867;28;20131;-80
2022/11/20 00:10:31;;;;;;;19.42;11.65;;;-4.30;99.90;;;;;;5036123;28;20045;-80
2022/11/20 00:13:00;;;;;;;25.63;13.88;;;-4.40;99.90;;;;;;5050609;28;20040;-80
2022/11/20 00:15:25;;;;;;;23.27;13.32;;;-4.40;99.90;;;;;;5034222;28;20189;-80
2022/11/20 00:17:51;;;;;;;24.08;14.00;;;-4.40;99.90;;;;;;5035884;28;20044;-80
2022/11/20 00:20:16;;;;;;;24.10;13.57;;;-4.40;99.90;;;;;;5049651;28;20068;-80
2022/11/20 00:22:42;;;;;;;25.90;14.15;;;-4.40;99.90;;;;;;5048918;28;20487;-80
2022/11/20 00:25:08;;;;;;;26.98;13.57;;;-4.40;99.90;;;;;;5051762;28;20044;-80
2022/11/20 00:27:33;;;;;;;22.17;11.82;;;-4.40;99.90;;;;;;5051232;28;20033;-80
2022/11/20 00:29:59;;;;;;;27.98;13.48;;;-4.40;99.90;;;;;;5036432;28;20476;-80
2022/11/20 00:32:24;;;;;;;21.65;12.75;;;-4.50;99.90;;;;;;5033579;28;20040;-80
2022/11/20 00:34:50;;;;;;;22.05;12.50;;;-4.40;99.90;;;;;;5052481;28;20112;-80
2022/11/20 00:37:16;;;;;;;27.17;12.77;;;-4.50;99.90;;;;;;5053649;28;20125;-80
2022/11/20 00:39:41;;;;;;;25.17;12.75;;;-4.50;99.90;;;;;;5053852;28;20525;-80
2022/11/20 00:42:07;;;;;;;23.02;12.43;;;-4.50;99.90;;;;;;5032857;28;20033;-80
2022/11/20 00:44:32;;;;;;;20.77;11.70;;;-4.50;99.90;;;;;;5037030;28;20049;-80
2022/11/20 00:46:58;;;;;;;21.75;13.60;;;-4.50;99.90;;;;;;5037086;28;20037;-80
2022/11/20 00:49:23;;;;;;;30.58;11.50;;;-4.50;99.90;;;;;;5037219;28;20041;-80
2022/11/20 00:51:49;;;;;;;24.10;12.07;;;-4.50;99.90;;;;;;5036646;28;20084;-80
2022/11/20 00:54:14;;;;;;;22.65;11.65;;;-4.50;99.90;;;;;;5036437;28;20040;-80
2022/11/20 00:56:40;;;;;;;22.48;12.00;;;-4.50;99.90;;;;;;5038175;28;20033;-80
2022/11/20 00:59:06;;;;;;;25.42;11.95;;;-4.50;99.90;;;;;;5038003;28;20041;-80
2022/11/20 01:01:32;;;;;;;21.70;12.15;;;-4.50;99.90;;;;;;5036545;28;20041;-80
2022/11/20 01:03:59;;;;;;;20.35;11.60;;;-4.60;99.90;;;;;;5031009;28;20041;-80
2022/11/20 01:06:30;;;;;;;23.42;11.25;;;-4.60;99.90;;;;;;5037962;28;20064;-81
2022/11/20 01:08:58;;;;;;;27.20;13.00;;;-4.50;99.90;;;;;;5054647;28;20108;-80
2022/11/20 01:11:27;;;;;;;23.58;12.07;;;-4.50;99.90;;;;;;5047772;28;20087;-80
2022/11/20 01:13:54;;;;;;;23.08;12.80;;;-4.40;99.90;;;;;;5024741;28;20132;-80
2022/11/20 01:16:26;;;;;;;23.30;13.15;;;-4.40;99.90;;;;;;5034381;28;20043;-80
2022/11/20 01:18:55;;;;;;;24.35;11.93;;;-4.40;99.90;;;;;;5050921;28;20094;-80
2022/11/20 01:21:23;;;;;;;22.30;11.80;;;-4.40;99.90;;;;;;5050846;28;20086;-81
2022/11/20 01:23:50;;;;;;;21.30;12.20;;;-4.30;99.90;;;;;;5028825;28;20091;-80
2022/11/20 01:26:22;;;;;;;21.58;12.10;;;-4.30;99.90;;;;;;5047824;28;20426;-80
2022/11/20 01:28:48;;;;;;;22.70;11.60;;;-4.40;99.90;;;;;;5032755;28;20483;-80
2022/11/20 01:31:20;;;;;;;19.70;10.43;;;-4.40;99.90;;;;;;5040996;28;20476;-80
2022/11/20 01:33:48;;;;;;;18.70;9.88;;;-4.40;99.90;;;;;;5023908;28;20443;-81
2022/11/20 01:36:15;;;;;;;15.23;8.88;;;-4.40;99.90;;;;;;5050851;28;20037;-80
2022/11/20 01:38:41;;;;;;;21.58;10.70;;;-4.40;99.90;;;;;;5027564;28;20083;-80
2022/11/20 01:41:07;;;;;;;23.15;11.20;;;-4.50;99.90;;;;;;5032855;28;20036;-81
2022/11/20 01:43:33;;;;;;;18.05;10.60;;;-4.50;99.90;;;;;;5045044;28;20041;-81
2022/11/20 01:46:14;;;;;;;20.23;10.05;;;-4.50;99.90;;;;;;5050115;28;21485;-79
2022/11/20 01:48:54;;;;;;;19.98;10.57;;;-4.50;99.90;;;;;;5029195;28;20037;-80
2022/11/20 01:51:22;;;;;;;19.30;10.10;;;-4.50;99.90;;;;;;5037186;28;20040;-81
2022/11/20 01:53:49;;;;;;;19.23;10.65;;;-4.60;99.90;;;;;;5048998;28;20037;-81
2022/11/20 01:56:15;;;;;;;19.63;10.30;;;-4.60;99.90;;;;;;5054689;28;20120;-80
2022/11/20 01:58:48;;;;;;;18.63;9.18;;;-4.50;99.90;;;;;;5054697;28;20080;-80
2022/11/20 02:01:14;;;;;;;17.48;10.00;;;-4.50;99.90;;;;;;5055396;28;20517;-80
2022/11/20 02:03:41;;;;;;;19.55;10.10;;;-4.40;99.90;;;;;;5051419;28;20474;-81
2022/11/20 02:06:11;;;;;;;19.23;9.90;;;-4.50;99.90;;;;;;5036907;28;20495;-80
2022/11/20 02:08:37;;;;;;;21.17;10.85;;;-4.50;99.90;;;;;;5037614;28;20044;-80
2022/11/20 02:11:03;;;;;;;18.73;9.65;;;-4.60;99.90;;;;;;5038440;28;20377;-80
2022/11/20 02:13:44;;;;;;;13.48;8.68;;;-4.60;99.90;;;;;;5044459;28;20044;-80
2022/11/20 02:16:16;;;;;;;17.40;9.57;;;-4.60;99.90;;;;;;5038005;28;20041;-80
2022/11/20 02:18:44;;;;;;;14.50;8.77;;;-4.60;99.90;;;;;;5032815;28;20040;-80
2022/11/20 02:21:22;;;;;;;16.73;8.93;;;-4.60;99.90;;;;;;5050866;28;20037;-81
2022/11/20 02:24:03;;;;;;;16.10;8.75;;;-4.60;99.90;;;;;;5035938;28;20068;-81
2022/11/20 02:26:31;;;;;;;18.42;8.65;;;-4.60;99.90;;;;;;5040842;28;20045;-81
2022/11/20 02:28:58;;;;;;;18.40;8.80;;;-4.60;99.90;;;;;;5037614;28;20123;-80
2022/11/20 02:31:24;;;;;;;20.67;9.18;;;-4.60;99.90;;;;;;5042132;28;20080;-80
2022/11/20 02:33:57;;;;;;;14.45;8.07;;;-4.60;99.90;;;;;;5046487;28;20061;-80
2022/11/20 02:36:26;;;;;;;16.00;8.85;;;-4.60;99.90;;;;;;5054302;28;20087;-80
2022/11/20 02:38:51;;;;;;;15.40;8.95;;;-4.60;99.90;;;;;;5053964;28;20529;-80
2022/11/20 02:41:17;;;;;;;16.85;9.35;;;-4.60;99.90;;;;;;5036814;28;20030;-81
2022/11/20 02:43:43;;;;;;;18.45;8.98;;;-4.60;99.90;;;;;;5038676;28;20446;-81
2022/11/20 02:46:08;;;;;;;16.20;9.57;;;-4.60;99.90;;;;;;5036381;28;20508;-81
2022/11/20 02:48:34;;;;;;;16.60;9.65;;;-4.70;99.90;;;;;;5036572;28;20107;-81
2022/11/20 02:51:00;;;;;;;18.30;10.82;;;-4.70;99.90;;;;;;5055561;28;20467;-81
2022/11/20 02:53:25;;;;;;;18.00;10.13;;;-4.70;99.90;;;;;;5054439;28;20097;-81
2022/11/20 02:55:51;;;;;;;19.55;9.88;;;-4.60;99.90;;;;;;5053582;28;20033;-80
2022/11/20 02:58:16;;;;;;;19.55;9.48;;;-4.60;99.90;;;;;;5032352;28;20033;-80
2022/11/20 03:00:42;;;;;;;15.50;9.63;;;-4.60;99.90;;;;;;5052911;28;20487;-80
2022/11/20 03:03:07;;;;;;;16.55;9.40;;;-4.60;99.90;;;;;;5035102;28;20380;-80
2022/11/20 03:05:33;;;;;;;17.15;9.40;;;-4.60;99.90;;;;;;5054155;28;20049;-80
2022/11/20 03:07:59;;;;;;;17.13;9.70;;;-4.60;99.90;;;;;;5034307;28;20034;-81
2022/11/20 03:10:24;;;;;;;17.10;9.90;;;-4.60;99.90;;;;;;5036712;28;20044;-80
2022/11/20 03:12:55;;;;;;;16.63;9.23;;;-4.70;99.90;;;;;;5038438;28;20047;-80
2022/11/20 03:15:21;;;;;;;16.52;8.77;;;-4.70;99.90;;;;;;5051297;28;20029;-80
2022/11/20 03:17:47;;;;;;;16.83;9.45;;;-4.70;99.90;;;;;;5035709;28;20075;-80
2022/11/20 03:20:12;;;;;;;16.23;9.30;;;-4.80;99.90;;;;;;5038906;28;20037;-81
2022/11/20 03:22:38;;;;;;;17.60;10.32;;;-4.80;99.90;;;;;;5033955;28;20052;-81
2022/11/20 03:25:04;;;;;;;17.15;9.75;;;-4.80;99.90;;;;;;5043224;28;20453;-81
2022/11/20 03:27:34;;;;;;;19.05;10.30;;;-4.80;99.90;;;;;;5056236;28;20033;-81
2022/11/20 03:30:04;;;;;;;18.05;9.00;;;-4.80;99.90;;;;;;5056407;23;20054;-78
2022/11/20 03:32:31;;;;;;;17.50;9.88;;;-4.80;99.90;;;;;;4972107;28;20126;-78
2022/11/20 03:34:56;;;;;;;17.50;9.95;;;-4.80;99.90;;;;;;4978645;28;20040;-78
2022/11/20 03:37:31;;;;;;;23.88;11.70;;;-4.80;99.90;;;;;;4976605;28;20046;-78
2022/11/20 03:40:03;;;;;;;17.17;8.25;;;-4.90;99.90;;;;;;4978928;28;20081;-78
2022/11/20 03:42:52;;;;;;;16.48;8.52;;;-4.80;99.90;;;;;;4976901;28;20042;-78
2022/11/20 03:45:25;;;;;;;16.67;9.63;;;-4.80;99.90;;;;;;4987572;28;20041;-79
2022/11/20 03:47:55;;;;;;;17.52;9.35;;;-4.80;99.90;;;;;;4993713;28;20057;-79
2022/11/20 03:50:21;;;;;;;18.85;10.60;;;-4.80;99.90;;;;;;4978226;28;20480;-78
2022/11/20 03:52:50;;;;;;;15.55;9.70;;;-4.80;99.90;;;;;;4978909;28;20038;-78
2022/11/20 03:55:16;;;;;;;18.00;10.45;;;-4.80;99.90;;;;;;4978552;28;20042;-78
2022/11/20 03:57:42;;;;;;;18.35;10.65;;;-4.80;99.90;;;;;;4969806;28;20061;-79
2022/11/20 04:00:08;;;;;;;21.25;12.30;;;-4.80;99.90;;;;;;4994571;28;20068;-78
2022/11/20 04:02:37;;;;;;;17.35;9.18;;;-4.80;99.90;;;;;;4977642;28;20544;-79
2022/11/20 04:05:03;;;;;;;19.77;10.13;;;-4.70;99.90;;;;;;4978084;28;20141;-78
2022/11/20 04:07:29;;;;;;;17.98;9.90;;;-4.80;99.90;;;;;;4959919;28;20077;-79
2022/11/20 04:10:05;;;;;;;18.20;9.93;;;-4.70;99.90;;;;;;4988192;28;20392;-78
2022/11/20 04:12:34;;;;;;;19.60;9.85;;;-4.70;99.90;;;;;;4967999;28;20128;-78
2022/11/20 04:15:00;;;;;;;18.90;9.88;;;-4.70;99.90;;;;;;4977484;28;20052;-78
2022/11/20 04:17:28;;;;;;;18.58;9.55;;;-4.80;99.90;;;;;;4977166;28;20045;-78
2022/11/20 04:20:07;;;;;;;17.92;10.50;;;-4.70;99.90;;;;;;4996020;28;20521;-78
2022/11/20 04:22:33;;;;;;;17.88;10.57;;;-4.70;99.90;;;;;;4978548;28;20042;-78
2022/11/20 04:25:08;;;;;;;16.13;8.93;;;-4.70;99.90;;;;;;4969366;28;20034;-78
2022/11/20 04:27:43;;;;;;;16.70;9.18;;;-4.70;99.90;;;;;;4971593;28;20038;-78
2022/11/20 04:30:12;;;;;;;18.70;10.05;;;-4.70;99.90;;;;;;4993378;28;20034;-78
2022/11/20 04:32:40;;;;;;;15.45;9.88;;;-4.70;99.90;;;;;;4977796;28;20066;-78
2022/11/20 04:35:17;;;;;;;17.45;9.90;;;-4.80;99.90;;;;;;4978568;28;20038;-78
2022/11/20 04:37:49;;;;;;;18.20;10.27;;;-4.70;99.90;;;;;;4960783;28;20034;-78
2022/11/20 04:40:16;;;;;;;21.58;10.88;;;-4.70;99.90;;;;;;4972713;28;20040;-78
2022/11/20 04:42:42;;;;;;;16.60;9.63;;;-4.70;99.90;;;;;;4977711;28;20046;-78
2022/11/20 04:45:11;;;;;;;18.92;9.82;;;-4.70;99.90;;;;;;4977792;28;20044;-78
2022/11/20 04:47:39;;;;;;;16.45;9.98;;;-4.70;99.90;;;;;;4970547;28;20042;-78
2022/11/20 04:50:17;;;;;;;17.05;10.80;;;-4.60;99.90;;;;;;4977293;28;20600;-78
2022/11/20 04:52:51;;;;;;;23.83;11.02;;;-4.70;99.90;;;;;;4974691;28;22225;-78
2022/11/20 04:55:25;;;;;;;17.95;10.13;;;-4.70;99.90;;;;;;4993486;28;20125;-78
2022/11/20 04:57:58;;;;;;;19.70;10.68;;;-4.70;99.90;;;;;;4978376;28;20514;-78
2022/11/20 05:00:30;;;;;;;20.25;10.65;;;-4.70;99.90;;;;;;4977507;28;20108;-78
2022/11/20 05:02:56;;;;;;;20.30;10.85;;;-4.70;99.90;;;;;;4977455;28;20063;-78
2022/11/20 05:05:21;;;;;;;17.60;9.63;;;-4.70;99.90;;;;;;4977432;28;20496;-78
2022/11/20 05:07:50;;;;;;;15.15;9.70;;;-4.80;99.90;;;;;;4971829;28;20053;-78
2022/11/20 05:10:23;;;;;;;18.48;10.32;;;-4.70;99.90;;;;;;4976466;28;20088;-78
2022/11/20 05:12:50;;;;;;;21.42;10.50;;;-4.70;99.90;;;;;;4977865;28;20457;-78
2022/11/20 05:15:19;;;;;;;14.32;9.07;;;-4.80;99.90;;;;;;4975828;28;20132;-78
2022/11/20 05:17:49;;;;;;;19.95;11.48;;;-4.80;99.90;;;;;;4969493;28;20042;-78
2022/11/20 05:20:16;;;;;;;17.05;10.02;;;-4.70;99.90;;;;;;4975512;28;20484;-79
2022/11/20 05:22:48;;;;;;;15.50;9.02;;;-4.80;99.90;;;;;;4980379;28;20107;-78
2022/11/20 05:25:22;;;;;;;21.27;10.60;;;-4.80;99.90;;;;;;4980780;28;20479;-78
2022/11/20 05:27:51;;;;;;;17.52;10.25;;;-4.70;99.90;;;;;;4980456;28;20038;-78
2022/11/20 05:30:34;;;;;;;19.15;11.40;;;-4.70;99.90;;;;;;4981181;28;20045;-78
2022/11/20 05:33:00;;;;;;;16.98;10.30;;;-4.70;99.90;;;;;;4980999;28;20104;-78
2022/11/20 05:35:38;;;;;;;19.15;10.85;;;-4.70;99.90;;;;;;4979722;28;20467;-78
2022/11/20 05:38:07;;;;;;;19.25;10.82;;;-4.70;99.90;;;;;;4974381;28;20411;-78
2022/11/20 05:40:35;;;;;;;19.08;10.27;;;-4.70;99.90;;;;;;4996944;28;20072;-78
2022/11/20 05:43:14;;;;;;;20.77;11.52;;;-4.70;99.90;;;;;;4985362;28;20072;-78
2022/11/20 05:45:51;;;;;;;17.73;9.68;;;-4.70;99.90;;;;;;4983108;28;20125;-78
2022/11/20 05:48:32;;;;;;;19.08;10.43;;;-4.70;99.90;;;;;;4969293;28;20542;-78
2022/11/20 05:51:05;;;;;;;21.90;10.95;;;-4.70;99.90;;;;;;4980969;28;20442;-79
2022/11/20 05:53:36;;;;;;;19.05;10.75;;;-4.70;99.90;;;;;;4979601;28;20434;-78
2022/11/20 05:56:11;;;;;;;17.63;11.00;;;-4.70;99.90;;;;;;4978700;28;20037;-78
2022/11/20 05:58:42;;;;;;;19.63;11.05;;;-4.70;99.90;;;;;;4979749;28;20069;-78
2022/11/20 06:01:22;;;;;;;17.92;11.38;;;-4.70;99.90;;;;;;4980173;28;20423;-78
2022/11/20 06:03:52;;;;;;;18.02;9.95;;;-4.70;99.90;;;;;;4977776;28;20046;-79
2022/11/20 06:06:19;;;;;;;18.35;9.80;;;-4.60;99.90;;;;;;4971960;28;20100;-78
2022/11/20 06:08:49;;;;;;;18.75;10.43;;;-4.60;99.90;;;;;;4975783;28;20034;-78
2022/11/20 06:11:16;;;;;;;21.13;11.00;;;-4.60;99.90;;;;;;4980012;28;20107;-79
2022/11/20 06:13:50;;;;;;;21.63;10.50;;;-4.50;99.90;;;;;;4980530;28;20044;-78
2022/11/20 06:16:20;;;;;;;19.77;10.43;;;-4.50;99.90;;;;;;4977271;28;20034;-78
2022/11/20 06:18:49;;;;;;;18.42;10.38;;;-4.40;99.90;;;;;;4979301;28;20112;-78
2022/11/20 06:21:21;;;;;;;18.58;10.05;;;-4.40;99.90;;;;;;4980194;28;20061;-78
2022/11/20 06:24:09;;;;;;;21.40;11.00;;;-4.30;99.90;;;;;;4978164;28;20377;-78
2022/11/20 06:26:41;;;;;;;17.30;11.13;;;-4.30;99.90;;;;;;4977012;28;20133;-78
2022/11/20 06:29:11;;;;;;;17.40;10.52;;;-4.20;99.90;;;;;;4967446;28;20103;-78
2022/11/20 06:32:02;;;;;;;21.88;11.48;;;-4.10;99.90;;;;;;4979093;28;20046;-78
2022/11/20 06:34:31;;;;;;;17.02;10.55;;;-4.00;99.90;;;;;;4975965;28;20104;-78
2022/11/20 06:37:00;;;;;;;20.42;11.65;;;-4.00;99.90;;;;;;4990484;28;20113;-78
2022/11/20 06:39:37;;;;;;;19.80;12.38;;;-3.90;99.90;;;;;;4979680;28;20084;-78
2022/11/20 06:42:06;;;;;;;20.73;12.00;;;-3.90;99.90;;;;;;4977208;28;20045;-78
2022/11/20 06:44:43;;;;;;;25.45;12.80;;;-3.90;99.90;;;;;;4979367;28;20038;-79
2022/11/20 06:47:24;;;;;;;19.33;11.38;;;-3.80;99.90;;;;;;4979911;28;20496;-78
2022/11/20 06:49:53;;;;;;;21.10;12.80;;;-3.80;99.90;;;;;;4978121;28;20042;-78
2022/11/20 06:55:03;;;;;;;22.42;13.25;;;-3.70;99.90;;;;;;5145159;27;20468;-78
2022/11/20 06:57:29;;;;;;;36.50;26.63;;;-3.70;99.90;;;;;;5112615;27;20572;-78
2022/11/20 06:59:55;;;;;;;24.23;13.23;;;-3.70;99.90;;;;;;5119380;27;20130;-78
2022/11/20 07:02:23;;;;;;;21.90;13.05;;;-3.70;99.90;;;;;;5111191;27;20040;-79
2022/11/20 07:04:52;;;;;;;25.95;13.43;;;-3.80;99.90;;;;;;5121663;27;20051;-79
2022/11/20 07:07:18;;;;;;;24.30;14.65;;;-3.70;99.90;;;;;;5091635;28;20040;-79
2022/11/20 07:09:55;;;;;;;23.77;12.88;;;-3.70;99.90;;;;;;5102099;28;20032;-79
2022/11/20 07:12:21;;;;;;;22.05;12.57;;;-3.70;99.90;;;;;;5115643;27;20435;-78
2022/11/20 07:14:51;;;;;;;25.38;13.35;;;-3.70;99.90;;;;;;5141027;27;20039;-79
2022/11/20 07:17:25;;;;;;;22.88;12.90;;;-3.60;99.90;;;;;;5134812;27;20027;-79
2022/11/20 07:23:50;;;;;;;23.35;12.93;;;-3.60;99.90;;;;;;5069262;27;20052;-79
2022/11/20 07:26:16;;;;;;;22.48;12.68;;;-3.50;99.90;;;;;;5113180;28;20072;-80
2022/11/20 07:28:44;;;;;;;23.52;13.30;;;-3.50;99.90;;;;;;5110913;28;20586;-79
2022/11/20 07:31:12;;;;;;;22.33;12.63;;;-3.50;99.90;;;;;;5112097;28;20047;-79
2022/11/20 07:33:46;;;;;;;20.75;12.70;;;-3.40;99.90;;;;;;5116168;28;20043;-79
2022/11/20 07:36:56;;;;;;;21.77;13.02;;;-3.40;99.90;;;;;;5117896;28;20047;-78
2022/11/20 07:39:29;;;;;;;21.02;11.82;;;-3.40;99.90;;;;;;5120573;28;20067;-79
2022/11/20 07:41:59;;;;;;;21.45;12.63;;;-3.40;99.90;;;;;;5117649;28;20050;-78
2022/11/20 07:44:27;;;;;;;21.80;13.43;;;-3.30;99.90;;;;;;5099595;28;20052;-77
2022/11/20 07:47:57;;;;;;;25.05;14.02;;;-3.30;99.90;;;;;;5118897;28;20031;-78
2022/11/20 07:51:00;;;;;;;22.85;13.73;;;-3.30;99.90;;;;;;5027647;28;20098;-81
2022/11/20 07:53:35;;;;;;;24.20;14.90;;;-3.20;99.90;;;;;;5035660;28;20043;-78
2022/11/20 07:56:40;;;;;;;35.78;28.27;;;-3.10;99.90;;;;;;5104007;28;20047;-80
2022/11/20 07:59:31;;;;;;;26.90;13.95;;;-3.10;99.90;;;;;;5123715;28;20277;-80
2022/11/20 08:08:49;;;;;;;;;;;;;;;;;;;;;
2022/11/20 08:14:39;;;;;;;23.77;13.70;;;-2.80;99.90;;;;;;5113694;28;20044;-79
2022/11/20 08:17:23;;;;;;;33.80;28.00;;;-2.80;99.90;;;;;;5094320;28;20055;-80
2022/11/20 08:20:34;;;;;;;;;;;;;;;;;;;;;
2022/11/20 08:23:10;;;;;;;29.25;15.77;;;-2.60;99.90;;;;;;5089431;28;20045;-80
2022/11/20 08:25:54;;;;;;;22.52;13.00;;;-2.60;99.90;;;;;;5073424;28;20043;-79
2022/11/20 08:28:28;;;;;;;24.10;14.27;;;-2.50;99.90;;;;;;5111805;28;20044;-79
2022/11/20 08:31:13;;;;;;;24.67;14.25;;;-2.40;99.90;;;;;;5064544;28;20079;-79
2022/11/20 08:33:44;;;;;;;24.02;14.27;;;-2.40;99.90;;;;;;5065819;28;20088;-80
2022/11/20 08:36:32;;;;;;;;;;;;;;;;;;;;;
2022/11/20 08:39:40;;;;;;;34.05;26.98;;;-2.20;99.90;;;;;;5084183;28;20120;-79
2022/11/20 08:42:31;;;;;;;31.13;25.67;;;-2.20;99.90;;;;;;5073038;28;20043;-80
2022/11/20 08:45:10;;;;;;;26.00;14.23;;;-2.20;99.90;;;;;;5080462;28;20044;-80
2022/11/20 08:47:53;;;;;;;24.73;13.90;;;-2.20;99.90;;;;;;5075339;28;20043;-80
2022/11/20 08:55:05;;;;;;;;;;;;;;;;;;;;;
2022/11/20 09:01:47;;;;;;;29.17;18.25;;;-2.20;99.90;;;;;;5070042;28;20143;-80
2022/11/20 09:14:36;;;;;;;32.08;18.52;;;-2.10;99.90;;;;;;5037883;28;20431;-80
2022/11/20 09:18:16;;;;;;;32.33;28.23;;;-2.00;99.90;;;;;;5083648;28;20096;-79
2022/11/20 09:24:27;;;;;;;23.80;14.00;;;-1.90;99.90;;;;;;5077360;28;20048;-79
2022/11/20 09:30:43;;;;;;;21.95;13.40;;;-1.70;99.90;;;;;;5056117;28;20045;-78
2022/11/20 09:33:11;;;;;;;28.45;16.65;;;-1.60;99.90;;;;;;5066890;28;20043;-78
2022/11/20 09:35:37;;;;;;;20.08;14.07;;;-1.50;99.90;;;;;;5075763;28;20074;-77
2022/11/20 09:38:10;;;;;;;22.35;14.02;;;-1.30;99.90;;;;;;5090875;28;20052;-78
2022/11/20 09:40:40;;;;;;;29.92;24.67;;;-1.20;99.90;;;;;;5087877;28;20039;-78
2022/11/20 09:51:25;;;;;;;24.80;13.98;;;-1.10;99.90;;;;;;5091215;28;20137;-79
2022/11/20 09:54:29;;;;;;;23.60;13.90;;;-1.10;99.90;;;;;;5074353;28;20422;-79
2022/11/20 09:57:44;;;;;;;21.63;11.53;;;-1.10;99.90;;;;;;5074690;28;20051;-79
2022/11/20 10:00:40;;;;;;;20.13;11.75;;;-1.00;99.90;;;;;;5061361;28;20044;-78
2022/11/20 10:03:26;;;;;;;20.50;13.68;;;-0.90;99.90;;;;;;5066106;28;20112;-78
2022/11/20 10:05:54;;;;;;;19.13;12.23;;;-0.90;99.90;;;;;;5067790;28;20051;-78
2022/11/20 10:08:20;;;;;;;23.02;20.52;;;-0.90;99.90;;;;;;5077168;28;20043;-78
2022/11/20 10:11:11;;;;;;;23.35;20.48;;;-0.80;99.90;;;;;;5078698;28;20035;-78
2022/11/20 10:14:14;;;;;;;23.63;20.35;;;-0.80;99.90;;;;;;5060948;28;20123;-78
2022/11/20 10:16:58;;;;;;;;;;;-0.70;99.90;;;;;;5073125;28;20069;-78
2022/11/20 10:19:48;;;;;;;21.05;18.83;;;-0.60;99.90;;;;;;5075195;28;19923;-78
2022/11/20 10:22:16;;;;;;;19.88;17.73;;;-0.50;99.90;;;;;;5077379;28;20042;-78
2022/11/20 10:25:03;;;;;;;18.23;10.85;;;-0.50;99.90;;;;;;5075464;28;20556;-78
2022/11/20 10:27:46;;;;;;;17.05;10.93;;;-0.40;99.90;;;;;;5074199;28;20100;-77
2022/11/20 10:30:15;;;;;;;21.35;19.15;;;-0.30;99.90;;;;;;5069505;28;20039;-77
2022/11/20 10:32:49;;;;;;;25.15;20.98;;;-0.20;99.90;;;;;;5080698;28;20051;-77
2022/11/20 10:35:24;;;;;;;24.70;21.08;;;-0.10;99.90;;;;;;5067500;28;20113;-77
2022/11/20 10:37:58;;;;;;;20.08;17.98;;;0.00;99.90;;;;;;5082074;28;20089;-79
2022/11/20 10:40:48;;;;;;;18.85;16.02;;;0.10;99.90;;;;;;5095209;28;20035;-79
2022/11/20 10:43:33;;;;;;;18.60;16.60;;;0.20;99.90;;;;;;5072746;28;20046;-79
2022/11/20 10:46:04;;;;;;;18.00;15.90;;;0.30;99.90;;;;;;5070644;28;20116;-78
2022/11/20 10:48:32;;;;;;;17.75;15.85;;;0.40;99.90;;;;;;5068678;28;20039;-78
2022/11/20 10:51:19;;;;;;;17.30;15.45;;;0.60;99.90;;;;;;5085350;28;20072;-79
2022/11/20 10:53:58;;;;;;;17.80;15.07;;;0.60;99.90;;;;;;5073839;28;20043;-79
2022/11/20 10:56:51;;;;;;;16.98;15.18;;;0.70;99.90;;;;;;5072264;28;20109;-79
2022/11/20 10:59:42;;;;;;;19.58;17.58;;;0.70;99.90;;;;;;5069420;28;20043;-78
2022/11/20 11:02:33;;;;;;;15.77;14.13;;;0.80;99.90;;;;;;5079376;28;20486;-78
2022/11/20 11:05:12;;;;;;;16.13;14.43;;;0.80;99.90;;;;;;5066977;28;20486;-78
2022/11/20 11:07:39;;;;;;;18.45;16.45;;;0.90;99.90;;;;;;5066445;28;20076;-78
2022/11/20 11:10:22;;;;;;;20.20;15.80;;;1.00;99.90;;;;;;5073424;28;20130;-78
2022/11/20 11:12:48;;;;;;;18.98;17.08;;;1.00;99.90;;;;;;5073390;28;20475;-78
2022/11/20 11:15:27;;;;;;;19.05;17.13;;;1.00;99.90;;;;;;5073457;28;20036;-78
2022/11/20 11:17:56;;;;;;;19.27;17.17;;;1.10;99.90;;;;;;5073777;28;20037;-78
2022/11/20 11:20:26;;;;;;;20.10;18.02;;;1.10;99.90;;;;;;5075564;28;20048;-78
2022/11/20 11:22:57;;;;;;;24.10;21.50;;;1.20;99.90;;;;;;5094142;28;20105;-78
2022/11/20 11:25:33;;;;;;;19.35;17.35;;;1.20;99.90;;;;;;5068611;28;20043;-78
2022/11/20 11:28:04;;;;;;;16.10;14.40;;;1.30;99.90;;;;;;5076045;28;20124;-78
2022/11/20 11:30:44;;;;;;;16.40;14.50;;;1.40;99.90;;;;;;5082196;28;20032;-78
2022/11/20 11:33:18;;;;;;;17.23;15.30;;;1.40;99.90;;;;;;5076528;28;20063;-78
2022/11/20 11:35:52;;;;;;;16.45;14.70;;;1.50;99.90;;;;;;5067389;28;20044;-78
2022/11/20 11:38:39;;;;;;;19.63;15.52;;;1.60;99.90;;;;;;5073711;28;20120;-78
2022/11/20 11:41:07;;;;;;;18.55;16.55;;;1.70;99.90;;;;;;5072643;28;20406;-78
2022/11/20 11:46:35;;;;;;;16.00;14.30;;;2.20;99.90;;;;;;5099765;28;20474;-78
2022/11/20 11:49:16;;;;;;;16.15;14.45;;;2.50;99.90;;;;;;5078237;28;20462;-78
2022/11/20 11:52:01;;;;;;;16.83;13.90;;;2.90;99.90;;;;;;5058826;28;20413;-78
2022/11/20 11:54:59;;;;;;;15.80;14.02;;;3.30;99.90;;;;;;5070183;28;20105;-78
2022/11/20 11:57:36;;;;;;;14.77;13.13;;;3.60;99.90;;;;;;5084546;28;20392;-78
2022/11/20 12:00:22;;;;;;;15.20;13.60;;;3.70;99.90;;;;;;5077736;28;20073;-78
2022/11/20 12:02:50;;;;;;;14.50;12.90;;;3.70;99.90;;;;;;5060100;28;20036;-79
2022/11/20 12:05:38;;;;;;;15.57;13.95;;;3.50;99.90;;;;;;5071886;28;20489;-79
2022/11/20 12:08:25;;;;;;;14.15;12.73;;;3.30;99.90;;;;;;5081035;28;20394;-78
2022/11/20 12:10:57;;;;;;;17.40;15.60;;;3.00;99.90;;;;;;5068272;28;20036;-78
2022/11/20 12:13:35;;;;;;;16.25;14.50;;;2.80;99.90;;;;;;5084910;28;20519;-78
2022/11/20 12:16:02;;;;;;;15.75;14.15;;;2.60;99.90;;;;;;5077492;28;20040;-78
2022/11/20 12:18:29;;;;;;;16.17;14.57;;;2.50;99.90;;;;;;5073502;28;20494;-78
2022/11/20 12:21:12;;;;;;;17.58;15.85;;;2.50;99.90;;;;;;5077121;28;20032;-78
2022/11/20 12:23:58;;;;;;;16.30;14.32;;;2.50;99.90;;;;;;5078237;28;20039;-78
2022/11/20 12:26:54;;;;;;;23.83;20.15;;;2.40;99.90;;;;;;5077013;28;20048;-78
2022/11/20 12:29:37;;;;;;;27.92;22.67;;;2.40;99.90;;;;;;5076664;28;20044;-78
2022/11/20 12:32:36;;;;;;;21.38;19.08;;;2.40;99.90;;;;;;5078584;28;20448;-78
2022/11/20 12:35:26;;;;;;;17.73;15.93;;;2.30;99.90;;;;;;5065891;28;20129;-78
2022/11/20 12:38:12;;;;;;;19.60;17.63;;;2.30;99.90;;;;;;5059824;28;20041;-78
2022/11/20 12:40:56;;;;;;;17.92;15.82;;;2.30;99.90;;;;;;5059095;28;20487;-78
2022/11/20 12:46:30;;;;;;;18.20;16.30;;;2.30;99.90;;;;;;5086460;28;20052;-78
2022/11/20 12:49:20;;;;;;;22.95;19.13;;;2.20;99.90;;;;;;5065089;28;20075;-79
2022/11/20 12:52:29;;;;;;;22.00;19.63;;;2.20;99.90;;;;;;5076370;28;20040;-79
2022/11/20 12:55:30;;;;;;;23.27;19.75;;;2.20;99.90;;;;;;5075255;28;20044;-78
2022/11/20 12:58:35;;;;;;;18.13;16.30;;;2.20;99.90;;;;;;5051389;28;20085;-78
2022/11/20 13:01:47;;;;;;;29.52;24.42;;;2.20;99.90;;;;;;5086906;28;20441;-79
2022/11/20 13:04:53;;;;;;;18.23;16.13;;;2.10;99.90;;;;;;5061605;28;20051;-79
2022/11/20 13:07:21;;;;;;;29.35;24.25;;;2.20;99.90;;;;;;5084112;22;21400;-77
2022/11/20 13:09:50;;;;;;;22.40;18.65;;;2.10;99.90;;;;;;5069322;28;20045;-78
2022/11/20 13:12:25;;;;;;;21.38;19.17;;;2.10;99.90;;;;;;5053008;28;20048;-78
2022/11/20 13:15:31;;;;;;;20.80;18.70;;;2.10;99.90;;;;;;5052902;28;20049;-78
2022/11/20 13:18:00;;;;;;;17.45;15.65;;;2.10;99.90;;;;;;5047077;28;20095;-78
2022/11/20 13:20:27;;;;;;;19.23;17.15;;;2.10;99.90;;;;;;5052277;28;20068;-78
2022/11/20 13:22:55;;;;;;;19.08;17.10;;;2.20;99.90;;;;;;5050000;28;20125;-78
2022/11/20 13:25:35;;;;;;;20.55;18.35;;;2.20;99.90;;;;;;5053367;28;20391;-78
2022/11/20 13:28:10;;;;;;;17.92;16.02;;;2.20;99.90;;;;;;5051980;28;20045;-77
2022/11/20 13:30:37;;;;;;;18.63;16.65;;;2.20;99.90;;;;;;5034578;28;20033;-77
2022/11/20 13:33:21;;;;;;;19.30;16.70;;;2.20;99.90;;;;;;5051248;28;20174;-77
2022/11/20 13:36:01;;;;;;;18.70;16.55;;;2.20;99.90;;;;;;5043490;28;20060;-77
2022/11/20 13:38:27;;;;;;;18.90;16.85;;;2.20;99.90;;;;;;5048741;28;20037;-78
2022/11/20 13:40:57;;;;;;;18.33;16.40;;;2.20;99.90;;;;;;5033910;28;20039;-78
2022/11/20 13:43:41;;;;;;;18.73;16.83;;;2.20;99.90;;;;;;5028504;28;20029;-78
2022/11/20 13:46:09;;;;;;;19.85;16.95;;;2.10;99.90;;;;;;5036690;28;20037;-78
2022/11/20 13:48:44;;;;;;;19.33;16.98;;;2.10;99.90;;;;;;5053261;28;20124;-78
2022/11/20 13:51:30;;;;;;;22.83;17.00;;;2.10;99.90;;;;;;5031120;28;20120;-78
2022/11/20 13:54:28;;;;;;;18.75;16.75;;;2.20;99.90;;;;;;5033438;28;20514;-78
2022/11/20 13:57:31;;;;;;;18.50;16.60;;;2.20;99.90;;;;;;5030283;28;20470;-78
2022/11/20 14:00:04;;;;;;;18.43;16.43;;;2.10;99.90;;;;;;5046222;28;20044;-78
2022/11/20 14:02:30;;;;;;;19.15;16.85;;;2.10;99.90;;;;;;5049684;28;20048;-79
2022/11/20 14:04:59;;;;;;;18.92;16.98;;;2.10;99.90;;;;;;5050180;28;20526;-78
2022/11/20 14:07:35;;;;;;;19.50;17.33;;;2.10;99.90;;;;;;5049973;28;20037;-78
2022/11/20 14:10:00;;;;;;;19.33;17.25;;;2.00;99.90;;;;;;5050735;28;20140;-78